Time;durP1;ratioP1;P1;durP2;ratioP2;P2;SDS_P1;SDS_P2;PMS_P1;PMS_P2;Temp;Humidity;BMP_temperature;BMP_pressure;BME280_temperature;BME280_humidity;BME280_pressure;Samples;Min_cycle;Max_cycle;Signal;HPM_P1;HPM_P2
2022/04/22 00:00:23;;;;;;;8.32;4.75;;;;;;;-143.53;100.00;58366.03;2083405;28;20203;-63
2022/04/22 00:01:25;;;;;;;9.43;4.70;;;;;;;-143.53;100.00;58366.03;2084364;28;20193;-63
2022/04/22 00:02:27;;;;;;;8.70;5.82;;;;;;;-143.53;100.00;58366.03;2085149;28;20204;-63
2022/04/22 00:03:28;;;;;;;9.43;4.63;;;;;;;-143.53;100.00;58366.03;2083661;28;20201;-63
2022/04/22 00:04:29;;;;;;;6.43;4.47;;;;;;;-143.53;100.00;58366.03;2078812;28;20197;-63
2022/04/22 00:05:31;;;;;;;7.70;4.10;;;;;;;-143.53;100.00;58366.03;2077679;28;20237;-63
2022/04/22 00:06:33;;;;;;;8.85;4.95;;;;;;;-143.53;100.00;58366.03;2085502;28;20231;-63
2022/04/22 00:07:34;;;;;;;6.82;4.20;;;;;;;-143.53;100.00;58366.03;2084654;28;20197;-63
2022/04/22 00:08:36;;;;;;;5.65;4.45;;;;;;;-143.53;100.00;58366.03;2082729;28;20200;-63
2022/04/22 00:09:37;;;;;;;7.95;5.10;;;;;;;-143.53;100.00;58366.03;2078322;28;20221;-63
2022/04/22 00:12:13;;;;;;;16.17;6.22;;;;;;;-143.53;100.00;58366.03;2057744;28;20202;-63
2022/04/22 00:13:15;;;;;;;7.75;5.28;;;;;;;-143.53;100.00;58366.03;2077920;28;20678;-63
2022/04/22 00:14:16;;;;;;;6.38;4.45;;;;;;;-143.53;100.00;58366.03;2084685;28;20200;-63
2022/04/22 00:15:18;;;;;;;7.63;5.13;;;;;;;-143.53;100.00;58366.03;2085458;28;20244;-63
2022/04/22 00:16:19;;;;;;;6.60;4.65;;;;;;;-143.53;100.00;58366.03;2084372;28;20201;-63
2022/04/22 00:17:21;;;;;;;7.72;5.22;;;;;;;-143.53;100.00;58366.03;2078938;28;20239;-63
2022/04/22 00:18:23;;;;;;;8.70;5.38;;;;;;;-143.53;100.00;58366.03;2079371;28;20735;-63
2022/04/22 00:19:25;;;;;;;8.75;5.28;;;;;;;-143.53;100.00;58366.03;2083923;28;20196;-63
2022/04/22 00:20:26;;;;;;;10.13;5.30;;;;;;;-143.53;100.00;58366.03;2083366;28;20196;-63
2022/04/22 00:21:27;;;;;;;6.30;4.65;;;;;;;-143.53;100.00;58366.03;2082292;28;20208;-63
2022/04/22 00:22:29;;;;;;;6.90;4.90;;;;;;;-143.53;100.00;58366.03;2082277;28;20204;-63
2022/04/22 00:23:30;;;;;;;8.25;4.78;;;;;;;-143.53;100.00;58366.03;2083302;28;20753;-63
2022/04/22 00:24:32;;;;;;;9.23;5.45;;;;;;;-143.53;100.00;58366.03;2084450;28;20255;-63
2022/04/22 00:25:34;;;;;;;7.90;5.25;;;;;;;-143.53;100.00;58366.03;2083482;28;20193;-63
2022/04/22 00:26:35;;;;;;;8.95;5.40;;;;;;;-143.53;100.00;58366.03;2084646;28;20204;-63
2022/04/22 00:27:38;;;;;;;9.52;6.20;;;;;;;-143.53;100.00;58366.03;2084719;28;20200;-63
2022/04/22 00:28:40;;;;;;;7.72;5.70;;;;;;;-143.53;100.00;58366.03;2083916;28;20204;-63
2022/04/22 00:29:41;;;;;;;9.07;5.95;;;;;;;-143.53;100.00;58366.03;2084102;28;20196;-63
2022/04/22 00:30:43;;;;;;;11.70;6.25;;;;;;;-143.53;100.00;58366.03;2084558;28;20226;-63
2022/04/22 00:31:44;;;;;;;8.38;5.43;;;;;;;-143.53;100.00;58366.03;2077235;28;20197;-63
2022/04/22 00:32:45;;;;;;;6.78;5.03;;;;;;;-143.53;100.00;58366.03;2079172;28;20193;-64
2022/04/22 00:33:47;;;;;;;10.93;5.63;;;;;;;-143.53;100.00;58366.03;2085804;28;20215;-63
2022/04/22 00:34:48;;;;;;;7.40;5.43;;;;;;;-143.53;100.00;58366.03;2083823;28;20276;-63
2022/04/22 00:35:50;;;;;;;15.88;5.50;;;;;;;-143.53;100.00;58366.03;2083707;28;20231;-63
2022/04/22 00:36:51;;;;;;;16.33;5.85;;;;;;;-143.53;100.00;58366.03;2085922;28;20296;-63
2022/04/22 00:37:53;;;;;;;19.65;5.60;;;;;;;-143.53;100.00;58366.03;2085998;28;20205;-63
2022/04/22 00:38:54;;;;;;;10.30;6.20;;;;;;;-143.53;100.00;58366.03;2081514;28;20284;-63
2022/04/22 00:39:56;;;;;;;12.05;5.72;;;;;;;-143.53;100.00;58366.03;2082937;28;20215;-63
2022/04/22 00:40:57;;;;;;;10.95;6.05;;;;;;;-143.53;100.00;58366.03;2083808;28;20216;-63
2022/04/22 00:42:06;;;;;;;12.85;5.25;;;;;;;-143.53;100.00;58366.03;2084101;28;20232;-63
2022/04/22 00:43:15;;;;;;;9.05;5.40;;;;;;;-143.53;100.00;58366.03;2084666;28;20209;-63
2022/04/22 00:44:16;;;;;;;9.77;5.72;;;;;;;-143.53;100.00;58366.03;2084925;28;20197;-63
2022/04/22 00:45:19;;;;;;;11.23;6.05;;;;;;;-143.53;100.00;58366.03;2083465;28;20207;-63
2022/04/22 00:46:21;;;;;;;10.07;6.20;;;;;;;-143.53;100.00;58366.03;2084159;28;20203;-63
2022/04/22 00:47:22;;;;;;;8.05;5.20;;;;;;;-143.53;100.00;58366.03;2085593;28;20211;-63
2022/04/22 00:48:24;;;;;;;8.95;5.25;;;;;;;-143.53;100.00;58366.03;2085961;28;20193;-63
2022/04/22 00:49:26;;;;;;;8.95;5.25;;;;;;;-143.53;100.00;58366.03;2085693;28;20279;-63
2022/04/22 00:50:27;;;;;;;10.15;5.85;;;;;;;-143.53;100.00;58366.03;2086141;28;20204;-62
2022/04/22 00:51:29;;;;;;;10.90;5.47;;;;;;;-143.53;100.00;58366.03;2087548;28;20644;-63
2022/04/22 00:52:31;;;;;;;9.57;5.82;;;;;;;-143.53;100.00;58366.03;2085564;28;20189;-63
2022/04/22 00:53:37;;;;;;;9.07;5.68;;;;;;;-143.53;100.00;58366.03;2085456;28;20200;-63
2022/04/22 00:54:39;;;;;;;9.07;5.85;;;;;;;-143.53;100.00;58366.03;2079685;28;20201;-63
2022/04/22 00:55:43;;;;;;;9.75;5.45;;;;;;;-143.53;100.00;58366.03;2080116;28;20232;-63
2022/04/22 00:56:44;;;;;;;8.40;5.80;;;;;;;-143.53;100.00;58366.03;2086644;28;20628;-63
2022/04/22 00:57:47;;;;;;;9.18;5.75;;;;;;;-143.53;100.00;58366.03;2086967;28;20197;-63
2022/04/22 00:58:49;;;;;;;10.48;5.55;;;;;;;-143.53;100.00;58366.03;2086310;28;20196;-63
2022/04/22 00:59:51;;;;;;;14.63;6.95;;;;;;;-143.53;100.00;58366.03;2084884;28;20279;-63
2022/04/22 01:00:52;;;;;;;9.73;6.20;;;;;;;-143.53;100.00;58366.03;2084108;28;20227;-63
2022/04/22 01:01:54;;;;;;;8.65;6.30;;;;;;;-143.53;100.00;58366.03;2085055;28;20724;-63
2022/04/22 01:02:55;;;;;;;9.85;5.80;;;;;;;-143.53;100.00;58366.03;2085758;28;20235;-63
2022/04/22 01:10:39;;;;;;;9.40;5.47;;;;;;;-143.53;100.00;58366.03;2083934;28;20225;-63
2022/04/22 01:11:41;;;;;;;10.32;6.60;;;;;;;-143.53;100.00;58366.03;2084502;28;20573;-63
2022/04/22 01:12:43;;;;;;;10.68;6.75;;;;;;;-143.53;100.00;58366.03;2084674;28;20306;-63
2022/04/22 01:13:45;;;;;;;14.38;6.60;;;;;;;-143.53;100.00;58366.03;2085249;28;20201;-63
2022/04/22 01:14:47;;;;;;;13.15;5.60;;;;;;;-143.53;100.00;58366.03;2085890;28;20204;-63
2022/04/22 01:15:48;;;;;;;10.52;6.40;;;;;;;-143.53;100.00;58366.03;2085040;28;20220;-63
2022/04/22 01:16:51;;;;;;;9.93;6.35;;;;;;;-143.53;100.00;58366.03;2085313;28;20429;-63
2022/04/22 01:17:52;;;;;;;10.82;6.70;;;;;;;-143.53;100.00;58366.03;2085753;28;20200;-63
2022/04/22 01:18:55;;;;;;;10.35;7.05;;;;;;;-143.53;100.00;58366.03;2074654;28;20642;-64
2022/04/22 01:19:57;;;;;;;10.05;6.25;;;;;;;-143.53;100.00;58366.03;2069590;28;20202;-63
2022/04/22 01:21:00;;;;;;;9.50;5.95;;;;;;;-143.53;100.00;58366.03;2077669;28;20242;-63
2022/04/22 01:22:02;;;;;;;15.65;5.93;;;;;;;-143.53;100.00;58366.03;2086296;28;20635;-63
2022/04/22 01:23:04;;;;;;;10.32;6.07;;;;;;;-143.53;100.00;58366.03;2085427;28;20200;-63
2022/04/22 01:24:06;;;;;;;9.80;6.10;;;;;;;-143.53;100.00;58366.03;2086239;28;20197;-63
2022/04/22 01:25:07;;;;;;;10.23;6.25;;;;;;;-143.53;100.00;58366.03;2085504;28;20215;-63
2022/04/22 01:26:09;;;;;;;9.77;6.05;;;;;;;-143.53;100.00;58366.03;2083317;28;20224;-63
2022/04/22 01:27:11;;;;;;;10.45;5.85;;;;;;;-143.53;100.00;58366.03;2083665;28;20393;-63
2022/04/22 01:28:13;;;;;;;8.60;6.10;;;;;;;-143.53;100.00;58366.03;2085326;28;20574;-63
2022/04/22 01:29:15;;;;;;;8.82;5.38;;;;;;;-143.53;100.00;58366.03;2086302;28;20196;-63
2022/04/22 01:30:23;;;;;;;12.15;6.82;;;;;;;-143.53;100.00;58366.03;2085926;28;20202;-63
2022/04/22 01:31:25;;;;;;;11.40;6.90;;;;;;;-143.53;100.00;58366.03;2085455;28;20770;-63
2022/04/22 01:32:27;;;;;;;10.80;6.90;;;;;;;-143.53;100.00;58366.03;2084460;28;20195;-63
2022/04/22 01:33:29;;;;;;;10.82;6.00;;;;;;;-143.53;100.00;58366.03;2085355;28;20208;-64
2022/04/22 01:34:30;;;;;;;11.20;6.68;;;;;;;-143.53;100.00;58366.03;2086451;28;20197;-63
2022/04/22 01:35:32;;;;;;;12.43;7.30;;;;;;;-143.53;100.00;58366.03;2084951;28;20288;-63
2022/04/22 01:36:33;;;;;;;11.52;6.57;;;;;;;-143.53;100.00;58366.03;2084590;28;20220;-63
2022/04/22 01:37:37;;;;;;;10.32;6.88;;;;;;;-143.53;100.00;58366.03;2084921;28;20608;-63
2022/04/22 01:38:38;;;;;;;12.00;6.50;;;;;;;-143.53;100.00;58366.03;2085378;28;20204;-63
2022/04/22 01:39:40;;;;;;;10.32;6.15;;;;;;;-143.53;100.00;58366.03;2084803;28;20198;-63
2022/04/22 01:40:41;;;;;;;9.93;6.00;;;;;;;-143.53;100.00;58366.03;2085465;28;20331;-63
2022/04/22 01:41:43;;;;;;;10.52;7.40;;;;;;;-143.53;100.00;58366.03;2079721;28;20260;-63
2022/04/22 01:42:44;;;;;;;13.38;7.05;;;;;;;-143.53;100.00;58366.03;2079746;28;20200;-63
2022/04/22 01:43:46;;;;;;;10.32;6.70;;;;;;;-143.53;100.00;58366.03;2086248;28;20207;-63
2022/04/22 01:44:49;;;;;;;12.63;6.72;;;;;;;-143.53;100.00;58366.03;2085096;28;20201;-64
2022/04/22 01:45:52;;;;;;;9.82;6.35;;;;;;;-143.53;100.00;58366.03;2082025;28;20216;-63
2022/04/22 01:46:55;;;;;;;20.25;6.90;;;;;;;-143.53;100.00;58366.03;2083440;28;20221;-64
2022/04/22 01:47:57;;;;;;;13.57;7.38;;;;;;;-143.53;100.00;58366.03;2084444;28;20220;-65
2022/04/22 01:48:59;;;;;;;10.60;6.07;;;;;;;-143.53;100.00;58366.03;2085475;28;20201;-65
2022/04/22 01:50:01;;;;;;;10.73;6.68;;;;;;;-143.53;100.00;58366.03;2085811;28;20652;-65
2022/04/22 01:51:02;;;;;;;11.82;6.47;;;;;;;-143.53;100.00;58366.03;2084786;28;20738;-65
2022/04/22 01:52:04;;;;;;;10.45;7.63;;;;;;;-143.53;100.00;58366.03;2083005;28;20196;-65
2022/04/22 01:53:08;;;;;;;13.63;7.20;;;;;;;-143.53;100.00;58366.03;2077257;28;20208;-65
2022/04/22 01:54:11;;;;;;;10.20;6.60;;;;;;;-143.53;100.00;58366.03;2078912;28;20189;-63
2022/04/22 01:55:13;;;;;;;13.15;7.80;;;;;;;-143.53;100.00;58366.03;2085383;28;20192;-64
2022/04/22 01:56:14;;;;;;;16.70;8.07;;;;;;;-143.53;100.00;58366.03;2084178;28;20221;-63
2022/04/22 01:57:16;;;;;;;11.93;7.18;;;;;;;-143.53;100.00;58366.03;2082975;28;20197;-63
2022/04/22 01:58:17;;;;;;;13.90;7.60;;;;;;;-143.53;100.00;58366.03;2084622;28;20199;-63
2022/04/22 01:59:19;;;;;;;11.88;7.30;;;;;;;-143.53;100.00;58366.03;2082608;28;20212;-63
2022/04/22 02:00:21;;;;;;;12.23;7.88;;;;;;;-143.53;100.00;58366.03;2085073;28;20201;-63
2022/04/22 02:01:22;;;;;;;15.50;7.32;;;;;;;-143.53;100.00;58366.03;2085059;28;20189;-64
2022/04/22 02:02:24;;;;;;;12.23;7.60;;;;;;;-143.53;100.00;58366.03;2085664;28;20283;-63
2022/04/22 02:03:25;;;;;;;12.63;8.07;;;;;;;-143.53;100.00;58366.03;2085137;28;20223;-63
2022/04/22 02:04:27;;;;;;;13.10;8.45;;;;;;;-143.53;100.00;58366.03;2085336;28;20192;-63
2022/04/22 02:05:28;;;;;;;11.25;8.43;;;;;;;-143.53;100.00;58366.03;2086253;28;20726;-63
2022/04/22 02:06:30;;;;;;;13.35;8.10;;;;;;;-143.53;100.00;58366.03;2086698;28;20205;-63
2022/04/22 02:07:32;;;;;;;16.75;8.50;;;;;;;-143.53;100.00;58366.03;2079618;28;20316;-63
2022/04/22 02:08:36;;;;;;;13.88;7.55;;;;;;;-143.53;100.00;58366.03;2078950;28;20200;-63
2022/04/22 02:09:37;;;;;;;14.23;8.02;;;;;;;-143.53;100.00;58366.03;2083892;28;20811;-63
2022/04/22 02:10:41;;;;;;;15.63;8.32;;;;;;;-143.53;100.00;58366.03;2081392;28;20220;-63
2022/04/22 02:11:42;;;;;;;13.63;8.25;;;;;;;-143.53;100.00;58366.03;2084498;28;20197;-63
2022/04/22 02:12:44;;;;;;;12.57;7.57;;;;;;;-143.53;100.00;58366.03;2084491;28;20204;-63
2022/04/22 02:13:46;;;;;;;14.57;8.38;;;;;;;-143.53;100.00;58366.03;2085096;28;20216;-63
2022/04/22 02:14:47;;;;;;;13.18;7.97;;;;;;;-143.53;100.00;58366.03;2086629;28;20207;-63
2022/04/22 02:15:49;;;;;;;13.45;7.65;;;;;;;-143.53;100.00;58366.03;2085835;28;20716;-63
2022/04/22 02:16:51;;;;;;;11.70;7.40;;;;;;;-143.53;100.00;58366.03;2086388;28;20308;-63
2022/04/22 02:17:55;;;;;;;14.35;8.40;;;;;;;-143.53;100.00;58366.03;2084709;28;20192;-63
2022/04/22 02:18:57;;;;;;;14.05;7.82;;;;;;;-143.53;100.00;58366.03;2081795;28;20205;-64
2022/04/22 02:19:58;;;;;;;13.15;8.93;;;;;;;-143.53;100.00;58366.03;2085462;28;20196;-63
2022/04/22 02:21:00;;;;;;;11.77;8.43;;;;;;;-143.53;100.00;58366.03;2084764;28;20220;-63
2022/04/22 02:22:02;;;;;;;14.68;6.93;;;;;;;-143.53;100.00;58366.03;2086254;28;20856;-63
2022/04/22 02:23:03;;;;;;;16.45;7.05;;;;;;;-143.53;100.00;58366.03;2079746;28;20205;-63
2022/04/22 02:24:05;;;;;;;12.27;8.25;;;;;;;-143.53;100.00;58366.03;2071778;28;20607;-63
2022/04/22 02:25:08;;;;;;;13.18;8.02;;;;;;;-143.53;100.00;58366.03;2078283;28;20208;-63
2022/04/22 02:26:09;;;;;;;13.00;6.70;;;;;;;-143.53;100.00;58366.03;2085870;28;20866;-63
2022/04/22 02:28:34;;;;;;;13.98;7.82;;;;;;;-143.53;100.00;58366.03;2083446;28;20197;-63
2022/04/22 02:29:38;;;;;;;13.93;7.40;;;;;;;-143.53;100.00;58366.03;2082910;28;20193;-63
2022/04/22 02:30:40;;;;;;;15.02;8.48;;;;;;;-143.53;100.00;58366.03;2084300;28;20274;-63
2022/04/22 02:31:41;;;;;;;12.38;7.75;;;;;;;-143.53;100.00;58366.03;2083883;28;20220;-63
2022/04/22 02:32:43;;;;;;;11.60;7.32;;;;;;;-143.53;100.00;58366.03;2084785;28;20640;-63
2022/04/22 02:33:44;;;;;;;12.93;7.70;;;;;;;-143.53;100.00;58366.03;2085649;28;20197;-63
2022/04/22 02:34:46;;;;;;;12.23;7.63;;;;;;;-143.53;100.00;58366.03;2083262;28;20204;-63
2022/04/22 02:35:47;;;;;;;13.15;7.70;;;;;;;-143.53;100.00;58366.03;2085595;28;20738;-64
2022/04/22 02:36:50;;;;;;;11.60;6.70;;;;;;;-143.53;100.00;58366.03;2082028;28;20213;-63
2022/04/22 02:37:54;;;;;;;12.38;7.95;;;;;;;-143.53;100.00;58366.03;2085267;28;20768;-63
2022/04/22 02:38:56;;;;;;;12.43;7.78;;;;;;;-143.53;100.00;58366.03;2084810;28;20601;-63
2022/04/22 02:39:57;;;;;;;14.35;8.80;;;;;;;-143.53;100.00;58366.03;2078370;28;20204;-63
2022/04/22 02:46:19;;;;;;;13.35;8.05;;;;;;;-143.53;100.00;58366.03;2074813;28;20223;-63
2022/04/22 02:47:21;;;;;;;15.65;8.27;;;;;;;-143.53;100.00;58366.03;2084068;28;20196;-63
2022/04/22 02:48:22;;;;;;;14.80;8.30;;;;;;;-143.53;100.00;58366.03;2086563;28;20205;-63
2022/04/22 02:49:24;;;;;;;15.50;8.68;;;;;;;-143.53;100.00;58366.03;2082702;28;20202;-63
2022/04/22 02:50:25;;;;;;;15.00;8.52;;;;;;;-143.53;100.00;58366.03;2083756;28;20279;-63
2022/04/22 02:51:27;;;;;;;15.95;8.95;;;;;;;-143.53;100.00;58366.03;2084474;28;20643;-63
2022/04/22 02:52:29;;;;;;;11.98;8.38;;;;;;;-143.53;100.00;58366.03;2084317;28;20529;-63
2022/04/22 02:53:30;;;;;;;14.07;8.43;;;;;;;-143.53;100.00;58366.03;2085335;28;20195;-63
2022/04/22 02:54:34;;;;;;;13.90;8.93;;;;;;;-143.53;100.00;58366.03;2082774;28;20204;-63
2022/04/22 02:55:41;;;;;;;15.43;9.07;;;;;;;-143.53;100.00;58366.03;2084210;28;20189;-63
2022/04/22 02:56:42;;;;;;;14.00;8.60;;;;;;;-143.53;100.00;58366.03;2084715;28;20618;-63
2022/04/22 02:57:44;;;;;;;16.02;9.13;;;;;;;-143.53;100.00;58366.03;2085232;28;20658;-63
2022/04/22 02:58:47;;;;;;;14.95;8.55;;;;;;;-143.53;100.00;58366.03;2084819;28;20237;-63
2022/04/22 02:59:48;;;;;;;15.32;9.32;;;;;;;-143.53;100.00;58366.03;2085670;28;20220;-63
2022/04/22 03:00:50;;;;;;;15.23;9.38;;;;;;;-143.53;100.00;58366.03;2085080;28;20867;-63
2022/04/22 03:01:53;;;;;;;14.43;8.40;;;;;;;-143.53;100.00;58366.03;2084513;28;20227;-63
2022/04/22 03:02:54;;;;;;;22.30;9.60;;;;;;;-143.53;100.00;58366.03;2085604;28;20528;-63
2022/04/22 03:03:56;;;;;;;13.45;9.30;;;;;;;-143.53;100.00;58366.03;2084785;28;20207;-63
2022/04/22 03:04:58;;;;;;;11.70;8.10;;;;;;;-143.53;100.00;58366.03;2085027;28;20197;-63
2022/04/22 03:05:59;;;;;;;16.98;8.95;;;;;;;-143.53;100.00;58366.03;2081964;28;20588;-63
2022/04/22 03:07:01;;;;;;;18.35;9.30;;;;;;;-143.53;100.00;58366.03;2084083;28;20193;-63
2022/04/22 03:08:05;;;;;;;14.45;9.38;;;;;;;-143.53;100.00;58366.03;2083147;28;20212;-63
2022/04/22 03:09:07;;;;;;;15.80;9.80;;;;;;;-143.53;100.00;58366.03;2085264;28;20222;-63
2022/04/22 03:10:10;;;;;;;14.07;9.70;;;;;;;-143.53;100.00;58366.03;2084039;28;20231;-63
2022/04/22 03:11:11;;;;;;;21.90;10.75;;;;;;;-143.53;100.00;58366.03;2081450;28;20243;-63
2022/04/22 03:12:13;;;;;;;20.80;11.07;;;;;;;-143.53;100.00;58366.03;2079375;28;20212;-63
2022/04/22 03:13:15;;;;;;;14.75;9.95;;;;;;;-143.53;100.00;58366.03;2079425;28;20235;-63
2022/04/22 03:14:18;;;;;;;15.68;9.75;;;;;;;-143.53;100.00;58366.03;2086042;28;20203;-63
2022/04/22 03:15:19;;;;;;;15.13;9.98;;;;;;;-143.53;100.00;58366.03;2084704;28;20200;-63
2022/04/22 03:16:25;;;;;;;20.30;10.98;;;;;;;-143.53;100.00;58366.03;2085690;28;20585;-63
2022/04/22 03:17:27;;;;;;;18.65;10.75;;;;;;;-143.53;100.00;58366.03;2084533;28;20266;-63
2022/04/22 03:18:28;;;;;;;15.25;9.48;;;;;;;-143.53;100.00;58366.03;2086049;28;20196;-65
2022/04/22 03:19:31;;;;;;;18.20;10.77;;;;;;;-143.53;100.00;58366.03;2085435;28;20192;-65
2022/04/22 03:20:32;;;;;;;13.93;8.90;;;;;;;-143.53;100.00;58366.03;2082824;28;20193;-63
2022/04/22 03:21:34;;;;;;;18.27;10.68;;;;;;;-143.53;100.00;58366.03;2082444;28;20201;-63
2022/04/22 03:22:36;;;;;;;14.98;9.60;;;;;;;-143.53;100.00;58366.03;2084126;28;20356;-63
2022/04/22 03:23:37;;;;;;;15.98;9.25;;;;;;;-143.53;100.00;58366.03;2084991;28;20196;-63
2022/04/22 03:24:39;;;;;;;17.65;10.38;;;;;;;-143.53;100.00;58366.03;2085185;28;20193;-64
2022/04/22 03:25:41;;;;;;;19.65;11.65;;;;;;;-143.53;100.00;58366.03;2084484;28;20219;-64
2022/04/22 03:26:42;;;;;;;19.23;10.40;;;;;;;-143.53;100.00;58366.03;2086126;28;20201;-64
2022/04/22 03:27:43;;;;;;;16.75;10.07;;;;;;;-143.53;100.00;58366.03;2084884;28;20196;-64
2022/04/22 03:28:46;;;;;;;17.77;11.05;;;;;;;-143.53;100.00;58366.03;2082526;28;20201;-64
2022/04/22 03:29:48;;;;;;;19.67;11.55;;;;;;;-143.53;100.00;58366.03;2084413;28;20200;-64
2022/04/22 03:30:50;;;;;;;20.08;12.27;;;;;;;-143.53;100.00;58366.03;2084677;28;20220;-64
2022/04/22 03:31:54;;;;;;;21.25;11.82;;;;;;;-143.53;100.00;58366.03;2084796;28;20233;-65
2022/04/22 03:32:55;;;;;;;17.90;11.43;;;;;;;-143.53;100.00;58366.03;2085644;28;20354;-64
2022/04/22 03:33:57;;;;;;;18.45;10.98;;;;;;;-143.53;100.00;58366.03;2085318;28;20204;-64
2022/04/22 03:34:58;;;;;;;19.73;11.27;;;;;;;-143.53;100.00;58366.03;2083647;28;20214;-64
2022/04/22 03:35:59;;;;;;;16.40;10.82;;;;;;;-143.53;100.00;58366.03;2082229;28;20231;-64
2022/04/22 03:37:01;;;;;;;18.58;10.82;;;;;;;-143.53;100.00;58366.03;2081770;28;20604;-64
2022/04/22 03:38:02;;;;;;;19.55;11.48;;;;;;;-143.53;100.00;58366.03;2083589;28;20211;-64
2022/04/22 03:39:04;;;;;;;20.23;12.00;;;;;;;-143.53;100.00;58366.03;2083944;28;20239;-64
2022/04/22 03:40:08;;;;;;;19.95;12.48;;;;;;;-143.53;100.00;58366.03;2084884;28;20192;-64
2022/04/22 03:41:10;;;;;;;23.98;11.18;;;;;;;-143.53;100.00;58366.03;2083995;28;20220;-64
2022/04/22 03:42:12;;;;;;;18.67;11.95;;;;;;;-143.53;100.00;58366.03;2085344;28;20303;-64
2022/04/22 03:43:14;;;;;;;27.30;13.95;;;;;;;-143.53;100.00;58366.03;2083337;28;20200;-64
2022/04/22 03:44:16;;;;;;;21.70;11.85;;;;;;;-143.53;100.00;58366.03;2083181;28;20193;-64
2022/04/22 03:45:18;;;;;;;22.15;12.00;;;;;;;-143.53;100.00;58366.03;2081863;28;20196;-64
2022/04/22 03:46:19;;;;;;;25.23;13.30;;;;;;;-143.53;100.00;58366.03;2086124;28;20192;-64
2022/04/22 03:47:21;;;;;;;22.25;14.23;;;;;;;-143.53;100.00;58366.03;2078900;28;20189;-64
2022/04/22 03:48:22;;;;;;;22.15;12.90;;;;;;;-143.53;100.00;58366.03;2079446;28;20609;-64
2022/04/22 03:49:24;;;;;;;22.58;12.20;;;;;;;-143.53;100.00;58366.03;2085322;28;20207;-64
2022/04/22 03:50:26;;;;;;;26.55;13.93;;;;;;;-143.53;100.00;58366.03;2083942;28;20288;-62
2022/04/22 03:51:28;;;;;;;25.42;13.65;;;;;;;-143.53;100.00;58366.03;2084342;28;20193;-69
2022/04/22 03:52:29;;;;;;;23.58;14.02;;;;;;;-143.53;100.00;58366.03;2082083;28;20201;-68
2022/04/22 03:53:33;;;;;;;27.60;14.30;;;;;;;-143.53;100.00;58366.03;2083812;28;20816;-68
2022/04/22 03:54:35;;;;;;;30.58;14.95;;;;;;;-143.53;100.00;58366.03;2083478;28;20203;-68
2022/04/22 03:55:42;;;;;;;22.25;15.35;;;;;;;-143.53;100.00;58366.03;2081819;28;20200;-68
2022/04/22 03:58:13;;;;;;;23.70;13.90;;;;;;;-143.53;100.00;58366.03;2084273;28;20218;-68
2022/04/22 03:59:14;;;;;;;26.33;14.82;;;;;;;-143.53;100.00;58366.03;2083828;28;20659;-69
2022/04/22 04:00:16;;;;;;;26.20;13.95;;;;;;;-143.53;100.00;58366.03;2075923;28;20720;-69
2022/04/22 04:01:17;;;;;;;27.92;14.48;;;;;;;-143.53;100.00;58366.03;2075160;28;20221;-68
2022/04/22 04:02:19;;;;;;;25.55;15.55;;;;;;;-143.53;100.00;58366.03;2085851;28;20595;-69
2022/04/22 04:03:23;;;;;;;25.52;14.98;;;;;;;-143.53;100.00;58366.03;2084188;28;20200;-69
2022/04/22 04:04:25;;;;;;;26.98;15.48;;;;;;;-143.53;100.00;58366.03;2083971;28;20869;-68
2022/04/22 04:05:26;;;;;;;27.60;15.80;;;;;;;-143.53;100.00;58366.03;2083535;28;20240;-68
2022/04/22 04:06:28;;;;;;;23.42;14.77;;;;;;;-143.53;100.00;58366.03;2084311;28;20201;-68
2022/04/22 04:07:29;;;;;;;25.83;14.77;;;;;;;-143.53;100.00;58366.03;2086809;28;20200;-68
2022/04/22 04:08:31;;;;;;;25.83;15.45;;;;;;;-143.53;100.00;58366.03;2084570;28;20208;-69
2022/04/22 04:16:13;;;;;;;24.75;15.02;;;;;;;-143.53;100.00;58366.03;2081894;28;20224;-68
2022/04/22 04:17:14;;;;;;;26.60;15.75;;;;;;;-143.53;100.00;58366.03;2075831;28;20209;-69
2022/04/22 04:18:16;;;;;;;28.02;16.17;;;;;;;-143.53;100.00;58366.03;2077292;28;20715;-70
2022/04/22 04:23:32;;;;;;;30.23;16.33;;;;;;;-143.53;100.00;58366.03;2085192;28;20206;-69
2022/04/22 04:24:34;;;;;;;28.27;15.95;;;;;;;-143.53;100.00;58366.03;2085128;28;20205;-68
2022/04/22 04:25:36;;;;;;;31.92;17.42;;;;;;;-143.53;100.00;58366.03;2086634;28;20831;-68
2022/04/22 04:26:37;;;;;;;30.17;18.25;;;;;;;-143.53;100.00;58366.03;2085599;28;20205;-70
2022/04/22 04:27:39;;;;;;;34.30;18.90;;;;;;;-143.53;100.00;58366.03;2085752;28;20200;-69
2022/04/22 04:28:42;;;;;;;27.88;16.58;;;;;;;-143.53;100.00;58366.03;2083845;28;20247;-68
2022/04/22 04:29:44;;;;;;;31.67;18.05;;;;;;;-143.53;100.00;58366.03;2084418;28;20207;-69
2022/04/22 04:30:46;;;;;;;24.60;16.58;;;;;;;-143.53;100.00;58366.03;2085066;28;20231;-68
2022/04/22 04:31:47;;;;;;;32.63;18.20;;;;;;;-143.53;100.00;58366.03;2086713;28;20197;-70
2022/04/22 04:32:49;;;;;;;35.58;18.77;;;;;;;-143.53;100.00;58366.03;2085575;28;20200;-69
2022/04/22 04:33:50;;;;;;;33.92;19.45;;;;;;;-143.53;100.00;58366.03;2084902;28;20200;-70
2022/04/22 04:34:52;;;;;;;34.00;18.25;;;;;;;-143.53;100.00;58366.03;2086610;28;20200;-69
2022/04/22 04:35:54;;;;;;;30.67;18.15;;;;;;;-143.53;100.00;58366.03;2085298;28;20606;-69
2022/04/22 04:36:55;;;;;;;27.13;16.63;;;;;;;-143.53;100.00;58366.03;2083996;28;20196;-69
2022/04/22 04:37:57;;;;;;;26.25;17.13;;;;;;;-143.53;100.00;58366.03;2085226;28;20228;-69
2022/04/22 04:38:59;;;;;;;33.72;19.35;;;;;;;-143.53;100.00;58366.03;2084094;28;20549;-68
2022/04/22 04:40:00;;;;;;;33.55;18.38;;;;;;;-143.53;100.00;58366.03;2084298;28;20192;-69
2022/04/22 04:41:03;;;;;;;31.00;17.92;;;;;;;-143.53;100.00;58366.03;2084614;28;20562;-70
2022/04/22 04:42:04;;;;;;;29.33;17.83;;;;;;;-143.53;100.00;58366.03;2086982;28;20207;-69
2022/04/22 04:43:06;;;;;;;35.10;17.58;;;;;;;-143.53;100.00;58366.03;2086173;28;20201;-69
2022/04/22 04:44:07;;;;;;;36.20;19.75;;;;;;;-143.53;100.00;58366.03;2080213;28;20197;-69
2022/04/22 04:45:09;;;;;;;30.08;17.48;;;;;;;-143.53;100.00;58366.03;2080606;28;20634;-69
2022/04/22 04:46:11;;;;;;;35.10;20.17;;;;;;;-143.53;100.00;58366.03;2085746;28;20254;-69
2022/04/22 04:47:12;;;;;;;36.90;21.27;;;;;;;-143.53;100.00;58366.03;2085418;28;20205;-69
2022/04/22 04:48:14;;;;;;;32.55;18.67;;;;;;;-143.53;100.00;58366.03;2085060;28;20200;-69
2022/04/22 04:49:16;;;;;;;33.85;19.70;;;;;;;-143.53;100.00;58366.03;2085640;28;20201;-69
2022/04/22 04:50:18;;;;;;;32.40;19.02;;;;;;;-143.53;100.00;58366.03;2085265;28;20201;-67
2022/04/22 04:51:19;;;;;;;34.55;20.50;;;;;;;-143.53;100.00;58366.03;2087347;28;20204;-69
2022/04/22 04:52:21;;;;;;;36.65;19.10;;;;;;;-143.53;100.00;58366.03;2085771;28;20200;-70
2022/04/22 04:53:26;;;;;;;39.33;19.23;;;;;;;-143.53;100.00;58366.03;2085459;28;20282;-69
2022/04/22 04:54:27;;;;;;;33.63;20.42;;;;;;;-143.53;100.00;58366.03;2085114;28;20203;-69
2022/04/22 04:55:29;;;;;;;34.53;19.70;;;;;;;-143.53;100.00;58366.03;2085290;28;20203;-68
2022/04/22 04:56:30;;;;;;;38.80;20.38;;;;;;;-143.53;100.00;58366.03;2087109;28;20193;-69
2022/04/22 04:57:32;;;;;;;34.97;17.88;;;;;;;-143.53;100.00;58366.03;2085069;28;20200;-69
2022/04/22 04:58:33;;;;;;;39.50;20.65;;;;;;;-143.53;100.00;58366.03;2086638;28;20595;-69
2022/04/22 04:59:35;;;;;;;34.90;19.67;;;;;;;-143.53;100.00;58366.03;2083171;28;20758;-68
2022/04/22 05:00:37;;;;;;;35.13;21.27;;;;;;;-143.53;100.00;58366.03;2082020;28;20212;-68
2022/04/22 05:01:38;;;;;;;32.85;19.80;;;;;;;-143.53;100.00;58366.03;2085690;28;20206;-69
2022/04/22 05:02:40;;;;;;;36.28;20.40;;;;;;;-143.53;100.00;58366.03;2086600;28;20196;-69
2022/04/22 05:03:42;;;;;;;39.78;20.83;;;;;;;-143.53;100.00;58366.03;2088328;28;20199;-69
2022/04/22 05:04:43;;;;;;;38.55;22.90;;;;;;;-143.53;100.00;58366.03;2087022;28;20209;-68